Time;durP1;ratioP1;P1;durP2;ratioP2;P2;SDS_P1;SDS_P2;PMS_P1;PMS_P2;Temp;Humidity;BMP_temperature;BMP_pressure;BME280_temperature;BME280_humidity;BME280_pressure;Samples;Min_cycle;Max_cycle;Signal;HPM_P1;HPM_P2
2021/05/04 00:01:35;;;;;;;1999.90;999.90;;;;;;;7.58;63.25;100736.88;15472333;28;20594;-52
2021/05/04 00:09:08;;;;;;;1999.90;999.90;;;;;;;7.86;62.02;100723.75;15472526;28;20499;-56
2021/05/04 00:16:40;;;;;;;1999.90;999.90;;;;;;;7.72;62.22;100712.69;15489887;28;20525;-56
2021/05/04 00:24:13;;;;;;;1999.90;999.90;;;;;;;8.02;61.30;100698.06;15472168;28;20492;-54
2021/05/04 00:31:44;;;;;;;1999.90;999.90;;;;;;;8.05;60.70;100685.47;15488960;28;20100;-57
2021/05/04 00:39:17;;;;;;;1999.90;999.90;;;;;;;8.04;60.25;100665.22;15489274;28;20121;-58
2021/05/04 00:46:49;;;;;;;1999.90;999.90;;;;;;;8.23;60.36;100659.44;15472459;28;20050;-57
2021/05/04 00:54:23;;;;;;;1999.90;999.90;;;;;;;8.31;60.17;100635.59;15477191;28;20044;-56
2021/05/04 01:01:56;;;;;;;1999.90;999.90;;;;;;;8.30;59.88;100626.41;15481258;28;20141;-56
2021/05/04 01:09:28;;;;;;;1999.90;999.90;;;;;;;8.23;60.18;100616.91;15459916;28;20050;-59
2021/05/04 01:17:01;;;;;;;1999.90;999.90;;;;;;;8.21;60.21;100599.72;15469503;28;20440;-58
2021/05/04 01:24:33;;;;;;;1999.90;999.90;;;;;;;8.43;59.50;100583.00;15469560;28;20381;-54
2021/05/04 01:32:06;;;;;;;1999.90;999.90;;;;;;;8.27;59.48;100571.47;15486825;28;20066;-54
2021/05/04 01:39:45;;;;;;;1999.90;999.90;;;;;;;8.54;59.29;100552.94;15470129;28;20096;-56
2021/05/04 01:47:17;;;;;;;1999.90;999.90;;;;;;;8.36;59.64;100533.44;15469691;28;20526;-56
2021/05/04 01:54:50;;;;;;;1999.90;999.90;;;;;;;8.39;59.62;100516.09;15498572;28;20162;-52
2021/05/04 02:02:21;;;;;;;1999.90;999.90;;;;;;;8.39;58.81;100512.50;15464605;28;20448;-55
2021/05/04 02:09:53;;;;;;;1999.90;999.90;;;;;;;8.36;59.25;100480.59;15479309;28;20038;-54
2021/05/04 02:17:25;;;;;;;1999.90;999.90;;;;;;;8.39;59.13;100471.63;15462051;28;20400;-56
2021/05/04 02:24:57;;;;;;;1999.90;999.90;;;;;;;8.58;58.82;100451.03;15495907;28;20049;-56
2021/05/04 02:32:32;;;;;;;1999.90;999.90;;;;;;;8.55;58.56;100437.78;15477667;28;20066;-54
2021/05/04 02:40:06;;;;;;;1999.90;999.90;;;;;;;8.73;58.09;100421.91;15462196;28;20077;-61
2021/05/04 02:47:37;;;;;;;;;;;;;;;8.72;58.01;100392.44;15477967;28;20058;-57
2021/05/04 02:55:10;;;;;;;1999.90;999.90;;;;;;;8.67;58.13;100382.31;15476996;28;19932;-53
2021/05/04 03:02:42;;;;;;;1999.90;999.90;;;;;;;8.84;57.77;100351.69;15460271;28;20046;-54
2021/05/04 03:10:14;;;;;;;1999.90;999.90;;;;;;;8.63;57.71;100339.59;15494414;28;20112;-55
2021/05/04 03:17:46;;;;;;;1999.90;999.90;;;;;;;8.77;57.72;100311.63;15492857;28;20112;-57
2021/05/04 03:25:18;;;;;;;1999.90;999.90;;;;;;;8.76;57.82;100296.09;15474157;23;20503;-63
2021/05/04 03:32:50;;;;;;;1999.90;999.90;;;;;;;8.98;57.04;100275.56;15436719;28;20047;-63
2021/05/04 03:40:22;;;;;;;1999.90;999.90;;;;;;;9.17;56.32;100270.38;15420046;28;20043;-63
2021/05/04 03:47:54;;;;;;;1999.90;999.90;;;;;;;8.91;56.61;100248.22;15420006;28;20057;-63
2021/05/04 03:55:27;;;;;;;1999.90;999.90;;;;;;;9.18;56.04;100221.94;15435400;28;20455;-63
2021/05/04 04:02:58;;;;;;;1999.90;999.90;;;;;;;9.16;55.77;100207.50;15436008;28;20055;-63
2021/05/04 04:10:31;;;;;;;1999.90;999.90;;;;;;;9.31;54.97;100190.25;15434511;28;20051;-62
2021/05/04 04:18:02;;;;;;;1999.90;999.90;;;;;;;9.61;53.89;100177.09;15401760;28;20062;-63
2021/05/04 04:25:35;;;;;;;1999.90;999.90;;;;;;;9.78;53.17;100159.41;15414152;28;20061;-63
2021/05/04 04:33:06;;;;;;;1999.90;999.90;;;;;;;9.92;52.99;100143.22;15494888;28;20047;-63
2021/05/04 04:40:39;;;;;;;1999.90;999.90;;;;;;;10.14;52.09;100139.22;15477704;28;20042;-62
2021/05/04 04:48:11;;;;;;;1999.90;999.90;;;;;;;10.35;51.64;100131.66;15476578;28;20042;-63
2021/05/04 04:55:44;;;;;;;1999.90;999.90;;;;;;;10.26;51.92;100111.41;15477605;28;20034;-63
2021/05/04 05:03:26;;;;;;;1999.90;999.90;;;;;;;10.36;51.67;100090.63;15477715;28;20491;-63
2021/05/04 05:11:01;;;;;;;;;;;;;;;10.56;50.52;100078.56;15461139;28;20042;-62
2021/05/04 05:18:40;;;;;;;1999.90;999.90;;;;;;;11.01;50.07;100057.22;15493738;28;19972;-62
2021/05/04 05:26:20;;;;;;;1999.90;999.90;;;;;;;11.16;49.51;100035.00;15467410;28;20515;-61
2021/05/04 05:33:58;;;;;;;1999.90;999.90;;;;;;;11.15;49.89;100007.41;15471586;28;20133;-61
2021/05/04 05:41:37;;;;;;;1999.90;999.90;;;;;;;11.79;49.22;99978.47;15504125;28;20116;-62
2021/05/04 05:49:10;;;;;;;1999.90;999.90;;;;;;;11.89;48.66;99957.59;15502346;28;20046;-62
2021/05/04 05:56:44;;;;;;;1999.90;999.90;;;;;;;12.05;48.24;99938.81;15503352;28;20480;-62
2021/05/04 06:04:16;;;;;;;1999.90;999.90;;;;;;;12.69;46.92;99920.75;15502682;28;20051;-63
2021/05/04 06:11:48;;;;;;;1999.90;999.90;;;;;;;12.79;46.86;99913.75;15485788;28;20045;-63
2021/05/04 06:19:19;;;;;;;1999.90;999.90;;;;;;;12.75;47.25;99877.28;15484288;28;20050;-63
2021/05/04 06:26:52;;;;;;;1999.90;999.90;;;;;;;12.95;47.24;99859.31;15502114;28;20054;-63
2021/05/04 06:34:25;;;;;;;1999.90;999.90;;;;;;;12.91;46.96;99840.81;15484501;28;20053;-63
2021/05/04 06:41:57;;;;;;;1999.90;999.90;;;;;;;13.03;46.96;99817.47;15501709;28;20047;-64
2021/05/04 06:49:29;;;;;;;1999.90;999.90;;;;;;;13.08;45.98;99789.13;15499634;28;20499;-62
2021/05/04 06:57:01;;;;;;;1999.90;999.90;;;;;;;13.09;46.64;99777.56;15482382;28;20065;-64
2021/05/04 07:04:33;;;;;;;1999.90;999.90;;;;;;;13.03;46.88;99789.44;15499574;28;20057;-64
2021/05/04 07:12:06;;;;;;;1999.90;999.90;;;;;;;12.94;47.05;99768.09;15499437;28;20050;-63
2021/05/04 07:19:39;;;;;;;1999.90;999.90;;;;;;;12.94;46.80;99784.91;15481185;28;20057;-64
2021/05/04 07:27:12;;;;;;;1999.90;999.90;;;;;;;12.83;49.76;99811.88;15498207;28;20061;-64
2021/05/04 07:34:43;;;;;;;1999.90;999.90;;;;;;;12.08;54.45;99810.28;15480018;28;20042;-63
2021/05/04 07:42:16;;;;;;;1999.90;999.90;;;;;;;11.45;58.24;99792.78;15498219;28;20137;-63
2021/05/04 07:49:48;;;;;;;1999.90;999.90;;;;;;;11.26;61.35;99776.78;15495465;28;20050;-63
2021/05/04 07:57:21;;;;;;;1999.90;999.90;;;;;;;11.50;58.45;99751.41;15496671;28;20058;-63
2021/05/04 08:04:52;;;;;;;1999.90;999.90;;;;;;;12.02;56.46;99725.09;15462627;28;20121;-63
2021/05/04 08:12:25;;;;;;;1999.90;999.90;;;;;;;12.42;56.17;99715.53;15462452;28;20053;-63
2021/05/04 08:19:59;;;;;;;1999.90;999.90;;;;;;;12.90;55.08;99688.81;15478424;28;20046;-62
2021/05/04 08:27:32;;;;;;;1999.90;999.90;;;;;;;13.05;54.01;99673.06;15494930;28;20054;-63
2021/05/04 08:35:04;;;;;;;1999.90;999.90;;;;;;;13.06;53.26;99666.28;15493932;28;20549;-62
2021/05/04 08:42:37;;;;;;;1999.90;999.90;;;;;;;13.24;53.48;99647.81;15476656;28;20088;-63
2021/05/04 08:50:10;;;;;;;1999.90;999.90;;;;;;;13.31;52.73;99644.28;15493418;28;20046;-63
2021/05/04 08:57:43;;;;;;;1999.90;999.90;;;;;;;14.05;50.15;99649.28;15476031;28;20486;-64
2021/05/04 09:05:16;;;;;;;1999.90;999.90;;;;;;;13.91;48.83;99627.50;15493977;28;20069;-61
2021/05/04 09:12:53;;;;;;;1999.90;999.90;;;;;;;14.16;48.20;99619.38;15462068;28;20105;-63
2021/05/04 09:20:30;;;;;;;1999.90;999.90;;;;;;;14.31;47.49;99609.94;15478476;28;20778;-62
2021/05/04 09:28:04;;;;;;;1999.90;999.90;;;;;;;14.41;46.78;99594.41;15476427;28;20054;-62
2021/05/04 09:35:37;;;;;;;1999.90;999.90;;;;;;;15.83;43.57;99578.56;15492675;28;20114;-63
2021/05/04 09:43:12;;;;;;;;;;;;;;;17.45;40.14;99586.75;15459359;28;20062;-63
2021/05/04 09:50:57;;;;;;;1999.90;999.90;;;;;;;16.89;40.72;99585.63;15492635;28;19929;-61
2021/05/04 09:58:35;;;;;;;1999.90;999.90;;;;;;;18.86;37.71;99555.38;15474833;28;20538;-62
2021/05/04 10:06:08;;;;;;;1999.90;999.90;;;;;;;16.91;39.34;99559.88;15491615;28;20057;-63
2021/05/04 10:13:43;;;;;;;1999.90;999.90;;;;;;;16.73;39.99;99560.69;15482448;28;20050;-64
2021/05/04 10:21:15;;;;;;;1999.90;999.90;;;;;;;17.11;38.80;99575.16;15502284;28;20052;-64
2021/05/04 10:28:54;;;;;;;1999.90;999.90;;;;;;;16.89;39.30;99551.81;15502163;28;20499;-63
2021/05/04 10:36:32;;;;;;;1999.90;999.90;;;;;;;16.72;40.41;99559.06;15484789;28;20069;-63
2021/05/04 10:44:07;;;;;;;1999.90;999.90;;;;;;;16.68;41.12;99549.81;15484586;28;20137;-63
2021/05/04 10:51:50;;;;;;;1999.90;999.90;;;;;;;16.38;42.02;99547.38;15467401;28;20050;-63
2021/05/04 10:59:46;;;;;;;1999.90;999.90;;;;;;;15.71;43.16;99541.56;15500197;28;20074;-63
2021/05/04 11:08:04;;;;;;;1999.90;999.90;;;;;;;16.80;42.70;99545.00;15482472;28;20122;-63
2021/05/04 11:15:36;;;;;;;1999.90;999.90;;;;;;;16.84;42.73;99542.97;15481582;28;20047;-64
2021/05/04 11:23:09;;;;;;;1999.90;999.90;;;;;;;16.66;43.43;99543.75;15465052;28;20113;-65
2021/05/04 11:30:43;;;;;;;1999.90;999.90;;;;;;;16.31;44.43;99546.53;15498936;28;20046;-64
2021/05/04 11:38:18;;;;;;;;;;;;;;;16.03;44.43;99550.09;15498549;28;20058;-64
2021/05/04 11:45:51;;;;;;;1999.90;999.90;;;;;;;16.42;43.12;99530.47;15496658;28;20386;-64
2021/05/04 11:53:23;;;;;;;1999.90;999.90;;;;;;;16.41;43.42;99548.56;15496594;28;20058;-64
2021/05/04 12:01:00;;;;;;;1999.90;999.90;;;;;;;16.38;43.62;99549.38;15478652;28;20042;-62
2021/05/04 12:08:32;;;;;;;1999.90;999.90;;;;;;;16.29;43.86;99546.94;15478202;28;20375;-64
2021/05/04 12:16:05;;;;;;;1999.90;999.90;;;;;;;15.79;44.94;99537.56;15495746;28;20447;-63
2021/05/04 12:23:39;;;;;;;1999.90;999.90;;;;;;;15.77;44.68;99531.53;15477405;28;20069;-63
2021/05/04 12:31:13;;;;;;;;;;;;;;;16.43;43.34;99503.91;15494605;28;20050;-63
2021/05/04 12:38:49;;;;;;;1999.90;999.90;;;;;;;16.23;44.21;99497.06;15477188;28;19921;-63
2021/05/04 12:46:31;;;;;;;1999.90;999.90;;;;;;;16.44;44.08;99489.44;15493858;28;20066;-63
2021/05/04 12:54:08;;;;;;;1999.90;999.90;;;;;;;16.68;44.59;99489.88;15475995;28;20125;-64
2021/05/04 13:01:43;;;;;;;1999.90;999.90;;;;;;;17.14;43.14;99463.63;15494038;28;20074;-63
2021/05/04 13:09:29;;;;;;;1999.90;999.90;;;;;;;17.53;42.66;99463.47;15493447;28;20096;-62
2021/05/04 13:33:14;;;;;;;1999.90;999.90;;;;;;;16.63;43.88;99465.69;15492054;28;20046;-63
2021/05/04 13:48:35;;;;;;;1999.90;999.90;;;;;;;16.88;42.68;99422.63;15487811;28;20478;-62
2021/05/04 13:56:07;;;;;;;1999.90;999.90;;;;;;;17.47;41.84;99398.22;15505408;28;20042;-64
2021/05/04 14:03:47;;;;;;;1999.90;999.90;;;;;;;17.22;41.93;99397.56;15504226;28;20138;-61
2021/05/04 14:26:59;;;;;;;1999.90;999.90;;;;;;;16.68;42.35;99400.56;15483915;28;20057;-62
2021/05/04 14:34:33;;;;;;;1999.90;999.90;;;;;;;16.82;41.12;99367.94;15500976;28;20522;-63
2021/05/04 14:42:49;;;;;;;1999.90;999.90;;;;;;;16.81;41.57;99377.59;15501619;28;20038;-62
2021/05/04 15:05:59;;;;;;;1999.90;999.90;;;;;;;17.66;41.46;99348.16;15482210;28;20415;-65
2021/05/04 15:13:30;;;;;;;1999.90;999.90;;;;;;;17.02;42.15;99350.13;15481581;28;20046;-64
2021/05/04 15:28:49;;;;;;;1999.90;999.90;;;;;;;16.84;42.04;99337.31;15489688;28;20058;-62
2021/05/04 15:36:22;;;;;;;1999.90;999.90;;;;;;;16.87;42.12;99330.88;15497520;28;20042;-63
2021/05/04 15:43:55;;;;;;;1999.90;999.90;;;;;;;16.44;42.45;99308.47;15479178;28;20467;-63
2021/05/04 15:51:39;;;;;;;1999.90;999.90;;;;;;;16.65;41.65;99307.59;15463293;28;20097;-62
2021/05/04 16:07:05;;;;;;;1999.90;999.90;;;;;;;15.81;48.79;99322.22;15478959;28;20112;-60
2021/05/04 16:14:36;;;;;;;1999.90;999.90;;;;;;;14.55;56.96;99344.75;15463496;28;20046;-62
2021/05/04 16:22:11;;;;;;;1999.90;999.90;;;;;;;12.46;69.35;99419.84;15491153;28;21517;-62
2021/05/04 16:29:59;;;;;;;1999.90;999.90;;;;;;;12.18;71.85;99397.03;15487001;28;20046;-61
2021/05/04 16:37:31;;;;;;;1999.90;999.90;;;;;;;12.73;70.75;99375.06;15495308;28;20129;-59
2021/05/04 16:45:04;;;;;;;1999.90;999.90;;;;;;;13.23;68.99;99376.47;15476860;28;20118;-63
2021/05/04 16:52:37;;;;;;;1999.90;999.90;;;;;;;13.26;68.15;99367.31;15477174;28;20051;-61
2021/05/04 17:00:10;;;;;;;1999.90;999.90;;;;;;;13.29;66.14;99353.34;15479133;28;20038;-62
2021/05/04 17:07:46;;;;;;;1999.90;999.90;;;;;;;13.72;65.79;99333.31;15482834;28;20383;-63
2021/05/04 17:15:18;;;;;;;1999.90;999.90;;;;;;;13.65;66.34;99319.25;15515008;28;20121;-62
2021/05/04 17:22:50;;;;;;;1999.90;999.90;;;;;;;13.81;66.61;99329.00;15532391;28;20054;-60
2021/05/04 17:30:22;;;;;;;1999.90;999.90;;;;;;;13.93;67.28;99363.53;15491518;28;20082;-63
2021/05/04 17:37:56;;;;;;;1999.90;999.90;;;;;;;13.84;68.71;99375.88;15488987;28;20054;-62
2021/05/04 17:45:29;;;;;;;1999.90;999.90;;;;;;;13.34;67.99;99377.41;15487852;28;20120;-62
2021/05/04 17:53:01;;;;;;;;;;;;;;;13.11;66.91;99337.50;15505578;28;20042;-63
2021/05/04 18:00:34;;;;;;;1999.90;999.90;;;;;;;12.93;67.30;99337.31;15472746;28;19922;-64
2021/05/04 18:08:09;;;;;;;1999.90;999.90;;;;;;;12.83;67.28;99352.00;15471271;28;20046;-67
2021/05/04 18:23:32;;;;;;;1999.90;999.90;;;;;;;13.48;66.86;99335.53;15505458;28;20531;-63
2021/05/04 18:31:07;;;;;;;1999.90;999.90;;;;;;;13.50;64.77;99346.34;15504168;28;20396;-64
2021/05/04 18:38:49;;;;;;;1999.90;999.90;;;;;;;13.26;60.68;99342.09;15504198;28;20055;-63
2021/05/04 18:46:49;;;;;;;1999.90;999.90;;;;;;;13.35;57.76;99353.81;15488726;28;20050;-61
2021/05/04 19:10:28;;;;;;;1999.90;999.90;;;;;;;13.31;56.61;99369.75;15486142;28;20057;-62
2021/05/04 20:12:58;;;;;;;1999.90;999.90;;;;;;;12.86;56.56;99362.41;15435295;28;20192;-62
2021/05/04 20:20:32;;;;;;;1999.90;999.90;;;;;;;12.87;56.33;99367.63;15414179;28;20039;-60
2021/05/04 20:28:05;;;;;;;1999.90;999.90;;;;;;;12.84;56.59;99357.19;15435304;28;20055;-61
2021/05/04 20:35:38;;;;;;;1999.90;999.90;;;;;;;12.78;56.70;99367.09;15435643;28;20090;-61
2021/05/04 20:43:13;;;;;;;1999.90;999.90;;;;;;;12.84;56.18;99374.00;15433838;28;20054;-61
2021/05/04 20:50:45;;;;;;;1999.90;999.90;;;;;;;12.77;56.39;99381.50;15433340;28;20169;-62
2021/05/04 20:58:19;;;;;;;1999.90;999.90;;;;;;;12.73;56.21;99406.66;15415631;28;20047;-60
2021/05/04 21:05:51;;;;;;;1999.90;999.90;;;;;;;13.00;55.70;99416.59;15400280;28;20093;-61
2021/05/04 21:13:23;;;;;;;1999.90;999.90;;;;;;;12.72;56.08;99402.22;15414687;28;20050;-62
2021/05/04 21:20:57;;;;;;;1999.90;999.90;;;;;;;12.52;56.39;99412.75;15414941;28;20138;-61
2021/05/04 21:28:29;;;;;;;1999.90;999.90;;;;;;;12.56;56.34;99423.97;15393036;23;20142;-61
2021/05/04 21:36:01;;;;;;;1999.90;999.90;;;;;;;12.31;56.65;99416.03;15360246;28;20512;-60
2021/05/04 21:43:34;;;;;;;1999.90;999.90;;;;;;;12.20;57.08;99429.03;15349347;29;20358;-59
2021/05/04 21:51:05;;;;;;;1999.90;999.90;;;;;;;12.08;57.16;99423.63;15363522;28;20096;-60
2021/05/04 21:58:38;;;;;;;1999.90;999.90;;;;;;;12.04;57.41;99431.16;15349443;28;20051;-60
2021/05/04 22:06:09;;;;;;;1999.90;999.90;;;;;;;11.77;57.90;99431.06;15369767;28;20146;-61
2021/05/04 22:13:49;;;;;;;1999.90;999.90;;;;;;;11.77;58.12;99435.84;15359482;29;20057;-61
2021/05/04 22:36:58;;;;;;;1999.90;999.90;;;;;;;11.31;59.01;99421.00;15375125;28;20043;-59
2021/05/04 22:44:52;;;;;;;1999.90;999.90;;;;;;;11.20;59.73;99413.25;15375313;28;20130;-60
2021/05/04 23:00:38;;;;;;;1999.90;999.90;;;;;;;11.04;60.53;99401.34;15374837;28;20063;-62
2021/05/04 23:16:09;;;;;;;1999.90;999.90;;;;;;;10.68;61.83;99397.81;15353351;28;20066;-57
2021/05/04 23:23:41;;;;;;;1999.90;999.90;;;;;;;10.48;62.65;99398.16;15372185;29;20046;-55
2021/05/04 23:31:13;;;;;;;1999.90;999.90;;;;;;;10.26;63.90;99386.50;15368099;29;20086;-60
2021/05/04 23:38:45;;;;;;;1999.90;999.90;;;;;;;10.35;63.93;99377.94;15371654;28;20483;-61
2021/05/04 23:46:17;;;;;;;1999.90;999.90;;;;;;;10.27;64.31;99376.97;15369986;28;20111;-60
2021/05/04 23:53:49;;;;;;;1999.90;999.90;;;;;;;10.33;64.32;99375.53;15361385;29;20055;-59
